OIAH  Gachsaran Airport

Add Bookmark

Iran

Status
Operational
Latitude Longitude
30° 20' 15" N 50° 49' 40" E
30.337601 50.827999
Local (DST + 5) UTC (GMT + 4)
Sep 1, 2014 11:02 Sep 1, 2014 18:32
Sunrise-Sunset Local UTC
Begin Civil Twilight 06:17 01:47
Sunrise 06:42 02:12
Sunset 07:31 15:01
End Civil Twilight 07:55 15:25

Current Weather

METAR Observed VFR
OIAH 011600Z 26006KT 9999 FEW040 37/12 Q1005 Mon, Sep 1, 2014 @ 16:00 UTC
(2 Hours, 32 Minutes ago)
Visual Flight Rules
Wind Visibility Clouds Conditions
260° at 6 knots (11 kph) 10 km or more
  • Few at 4,000' AGL
  • No significant weather
Temperatures Readings Precipitation
Current Temp 37°C (99°F)
Dewpoint 12°C (54°F)
Humidity 22%
Altimeter 29.68"Hg
Sea Level Pressure 1005mb
Field Elevation 2421.26'
None Recorded

Additional weather within a 92.6km radius of OIAH

Map ICAO Location
OISY 79.6km E (059°)

24 Hour Weather History

Loading
-

24 Hour Weather Graphs

Loading
-

CheckWX.com is intended as a tool to help pilots better visualize weather data. It is not intended as a substitute for an official weather briefing obtained from a Flight Service Station. CheckWX.com does not meet the FAA requirements for an official pre-flight weather briefing. Therefore, it's important that pilots still call and obtain an official FSS pre-flight weather briefing.